sensor_id;sensor_type;location;lat;lon;timestamp;pressure;altitude;pressure_sealevel;temperature;humidity
36726;BME280;44936;52.086;5.150;2024-01-15T00:00:37;101134.50;;;2.38;100.00
36726;BME280;44936;52.086;5.150;2024-01-15T00:03:03;101181.09;;;2.59;100.00
36726;BME280;44936;52.086;5.150;2024-01-15T00:05:28;101156.56;;;2.49;100.00
36726;BME280;44936;52.086;5.150;2024-01-15T00:07:54;101159.66;;;2.40;100.00
36726;BME280;44936;52.086;5.150;2024-01-15T00:10:19;101157.75;;;2.57;100.00
36726;BME280;44936;52.086;5.150;2024-01-15T00:12:44;101133.72;;;2.39;100.00
36726;BME280;44936;52.086;5.150;2024-01-15T00:15:09;101119.63;;;2.32;100.00
36726;BME280;44936;52.086;5.150;2024-01-15T00:17:35;101135.78;;;2.47;100.00
36726;BME280;44936;52.086;5.150;2024-01-15T00:20:00;101111.72;;;2.29;100.00
36726;BME280;44936;52.086;5.150;2024-01-15T00:22:26;101134.38;;;2.35;100.00
36726;BME280;44936;52.086;5.150;2024-01-15T00:24:52;101153.50;;;2.38;100.00
36726;BME280;44936;52.086;5.150;2024-01-15T00:27:17;101108.19;;;2.27;100.00
36726;BME280;44936;52.086;5.150;2024-01-15T00:29:43;101133.31;;;2.30;100.00
36726;BME280;44936;52.086;5.150;2024-01-15T00:32:09;101108.19;;;2.06;100.00
36726;BME280;44936;52.086;5.150;2024-01-15T00:34:34;101086.69;;;2.07;100.00
36726;BME280;44936;52.086;5.150;2024-01-15T00:37:00;101099.66;;;2.09;100.00
36726;BME280;44936;52.086;5.150;2024-01-15T00:39:25;101108.19;;;2.27;100.00
36726;BME280;44936;52.086;5.150;2024-01-15T00:41:51;101104.81;;;2.30;100.00
36726;BME280;44936;52.086;5.150;2024-01-15T00:44:16;101125.31;;;2.23;100.00
36726;BME280;44936;52.086;5.150;2024-01-15T00:46:46;101099.22;;;2.19;100.00
36726;BME280;44936;52.086;5.150;2024-01-15T00:49:13;101106.88;;;2.16;100.00
36726;BME280;44936;52.086;5.150;2024-01-15T00:51:38;101074.06;;;2.15;100.00
36726;BME280;44936;52.086;5.150;2024-01-15T00:54:04;101072.25;;;2.12;100.00
36726;BME280;44936;52.086;5.150;2024-01-15T00:56:29;101109.84;;;2.25;100.00
36726;BME280;44936;52.086;5.150;2024-01-15T00:58:55;101075.44;;;2.07;100.00
36726;BME280;44936;52.086;5.150;2024-01-15T01:01:20;101105.22;;;2.18;100.00
36726;BME280;44936;52.086;5.150;2024-01-15T01:03:48;101101.97;;;2.22;100.00
36726;BME280;44936;52.086;5.150;2024-01-15T01:06:13;101049.97;;;1.95;100.00
36726;BME280;44936;52.086;5.150;2024-01-15T01:08:39;101073.75;;;2.07;100.00
36726;BME280;44936;52.086;5.150;2024-01-15T01:11:04;101105.44;;;2.22;100.00
36726;BME280;44936;52.086;5.150;2024-01-15T01:13:31;101073.13;;;2.13;100.00
36726;BME280;44936;52.086;5.150;2024-01-15T01:15:56;101055.06;;;1.93;100.00
36726;BME280;44936;52.086;5.150;2024-01-15T01:18:22;101068.94;;;2.16;100.00
36726;BME280;44936;52.086;5.150;2024-01-15T01:20:47;101093.88;;;2.14;100.00
36726;BME280;44936;52.086;5.150;2024-01-15T01:23:12;101083.47;;;2.13;100.00
36726;BME280;44936;52.086;5.150;2024-01-15T01:25:38;101077.34;;;2.32;100.00
36726;BME280;44936;52.086;5.150;2024-01-15T01:28:03;101057.38;;;2.29;100.00
36726;BME280;44936;52.086;5.150;2024-01-15T01:30:28;101056.44;;;2.27;100.00
36726;BME280;44936;52.086;5.150;2024-01-15T01:32:54;101068.22;;;2.41;100.00
36726;BME280;44936;52.086;5.150;2024-01-15T01:35:19;101047.53;;;2.20;100.00
36726;BME280;44936;52.086;5.150;2024-01-15T01:37:44;101056.63;;;2.32;100.00
36726;BME280;44936;52.086;5.150;2024-01-15T01:40:10;101055.09;;;2.37;100.00
36726;BME280;44936;52.086;5.150;2024-01-15T01:42:35;101063.03;;;2.41;100.00
36726;BME280;44936;52.086;5.150;2024-01-15T01:45:01;101047.78;;;2.26;100.00
36726;BME280;44936;52.086;5.150;2024-01-15T01:47:26;101032.31;;;2.28;100.00
36726;BME280;44936;52.086;5.150;2024-01-15T01:49:52;101089.81;;;2.42;100.00
36726;BME280;44936;52.086;5.150;2024-01-15T01:52:18;101066.09;;;2.31;100.00
36726;BME280;44936;52.086;5.150;2024-01-15T01:54:44;101062.06;;;2.17;100.00
36726;BME280;44936;52.086;5.150;2024-01-15T01:57:10;101068.06;;;2.38;100.00
36726;BME280;44936;52.086;5.150;2024-01-15T01:59:36;101043.38;;;2.24;100.00
36726;BME280;44936;52.086;5.150;2024-01-15T02:02:03;101095.81;;;2.41;100.00
36726;BME280;44936;52.086;5.150;2024-01-15T02:04:29;101064.91;;;2.23;100.00
36726;BME280;44936;52.086;5.150;2024-01-15T02:06:56;101086.41;;;2.43;100.00
36726;BME280;44936;52.086;5.150;2024-01-15T02:09:21;101062.78;;;2.35;100.00
36726;BME280;44936;52.086;5.150;2024-01-15T02:11:47;101085.41;;;2.39;100.00
36726;BME280;44936;52.086;5.150;2024-01-15T02:14:13;101087.59;;;2.51;100.00
36726;BME280;44936;52.086;5.150;2024-01-15T02:16:38;101095.88;;;2.42;100.00
36726;BME280;44936;52.086;5.150;2024-01-15T02:19:04;101051.56;;;2.35;100.00
36726;BME280;44936;52.086;5.150;2024-01-15T02:21:31;101080.81;;;2.54;100.00
36726;BME280;44936;52.086;5.150;2024-01-15T02:23:57;101093.94;;;2.59;100.00
36726;BME280;44936;52.086;5.150;2024-01-15T02:26:22;101070.59;;;2.58;100.00
36726;BME280;44936;52.086;5.150;2024-01-15T02:28:48;101088.34;;;2.71;100.00
36726;BME280;44936;52.086;5.150;2024-01-15T02:31:14;101090.25;;;2.75;100.00
36726;BME280;44936;52.086;5.150;2024-01-15T02:33:39;101032.81;;;2.40;100.00
36726;BME280;44936;52.086;5.150;2024-01-15T02:36:05;101101.53;;;2.77;100.00
36726;BME280;44936;52.086;5.150;2024-01-15T02:38:30;101039.28;;;2.51;100.00
36726;BME280;44936;52.086;5.150;2024-01-15T02:40:56;101074.56;;;2.72;100.00
36726;BME280;44936;52.086;5.150;2024-01-15T02:43:21;101103.84;;;2.92;100.00
36726;BME280;44936;52.086;5.150;2024-01-15T02:45:47;101089.06;;;2.67;100.00
36726;BME280;44936;52.086;5.150;2024-01-15T02:48:12;101081.47;;;2.71;100.00
36726;BME280;44936;52.086;5.150;2024-01-15T02:50:37;101089.09;;;2.46;100.00
36726;BME280;44936;52.086;5.150;2024-01-15T02:53:03;101091.41;;;2.61;100.00
36726;BME280;44936;52.086;5.150;2024-01-15T02:55:31;101090.06;;;2.70;100.00
36726;BME280;44936;52.086;5.150;2024-01-15T02:57:57;101049.53;;;2.48;100.00
36726;BME280;44936;52.086;5.150;2024-01-15T03:00:22;101035.59;;;2.46;100.00
36726;BME280;44936;52.086;5.150;2024-01-15T03:02:49;101030.06;;;2.37;100.00
36726;BME280;44936;52.086;5.150;2024-01-15T03:05:15;101046.09;;;2.49;100.00
36726;BME280;44936;52.086;5.150;2024-01-15T03:07:41;101030.22;;;2.40;100.00
36726;BME280;44936;52.086;5.150;2024-01-15T03:10:06;101042.69;;;2.50;100.00
36726;BME280;44936;52.086;5.150;2024-01-15T03:12:32;101061.28;;;2.63;100.00
36726;BME280;44936;52.086;5.150;2024-01-15T03:14:57;101043.38;;;2.46;100.00
36726;BME280;44936;52.086;5.150;2024-01-15T03:17:23;101075.09;;;2.63;100.00
36726;BME280;44936;52.086;5.150;2024-01-15T03:19:48;101056.16;;;2.42;100.00
36726;BME280;44936;52.086;5.150;2024-01-15T03:22:15;101079.09;;;2.55;100.00
36726;BME280;44936;52.086;5.150;2024-01-15T03:24:40;101036.66;;;2.29;100.00
36726;BME280;44936;52.086;5.150;2024-01-15T03:27:06;101035.97;;;2.33;100.00
36726;BME280;44936;52.086;5.150;2024-01-15T03:29:31;101068.69;;;2.53;100.00
36726;BME280;44936;52.086;5.150;2024-01-15T03:31:56;101003.19;;;2.34;100.00
36726;BME280;44936;52.086;5.150;2024-01-15T03:34:22;101017.81;;;2.32;100.00
36726;BME280;44936;52.086;5.150;2024-01-15T03:36:49;101032.34;;;2.50;100.00
36726;BME280;44936;52.086;5.150;2024-01-15T03:39:14;101046.09;;;2.72;100.00
36726;BME280;44936;52.086;5.150;2024-01-15T03:41:39;101008.56;;;2.61;100.00
36726;BME280;44936;52.086;5.150;2024-01-15T03:44:04;101007.63;;;2.59;100.00
36726;BME280;44936;52.086;5.150;2024-01-15T03:46:30;101054.88;;;2.99;100.00
36726;BME280;44936;52.086;5.150;2024-01-15T03:48:55;101026.66;;;2.83;100.00
36726;BME280;44936;52.086;5.150;2024-01-15T03:51:20;100996.88;;;2.72;100.00
36726;BME280;44936;52.086;5.150;2024-01-15T03:53:46;101023.59;;;2.93;100.00
36726;BME280;44936;52.086;5.150;2024-01-15T03:56:12;101019.50;;;2.76;100.00
36726;BME280;44936;52.086;5.150;2024-01-15T03:58:37;101013.59;;;2.80;100.00
36726;BME280;44936;52.086;5.150;2024-01-15T04:01:03;101016.31;;;2.61;100.00
36726;BME280;44936;52.086;5.150;2024-01-15T04:03:28;101039.16;;;2.71;100.00
36726;BME280;44936;52.086;5.150;2024-01-15T04:05:54;101009.72;;;2.46;100.00
36726;BME280;44936;52.086;5.150;2024-01-15T04:08:19;101006.69;;;2.34;100.00
36726;BME280;44936;52.086;5.150;2024-01-15T04:10:44;101033.63;;;2.62;100.00
36726;BME280;44936;52.086;5.150;2024-01-15T04:13:10;100997.56;;;2.44;100.00
36726;BME280;44936;52.086;5.150;2024-01-15T04:15:35;100987.78;;;2.37;100.00
36726;BME280;44936;52.086;5.150;2024-01-15T04:18:02;100976.78;;;2.20;100.00
36726;BME280;44936;52.086;5.150;2024-01-15T04:20:27;100977.44;;;2.37;100.00
36726;BME280;44936;52.086;5.150;2024-01-15T04:22:53;101018.66;;;2.54;100.00
36726;BME280;44936;52.086;5.150;2024-01-15T04:25:18;100989.38;;;2.33;100.00
36726;BME280;44936;52.086;5.150;2024-01-15T04:27:43;101012.25;;;2.45;100.00
36726;BME280;44936;52.086;5.150;2024-01-15T04:30:09;101020.91;;;2.45;100.00
36726;BME280;44936;52.086;5.150;2024-01-15T04:32:35;101019.28;;;2.47;100.00
36726;BME280;44936;52.086;5.150;2024-01-15T04:35:01;100950.19;;;2.02;100.00
36726;BME280;44936;52.086;5.150;2024-01-15T04:37:26;100965.13;;;2.09;100.00
36726;BME280;44936;52.086;5.150;2024-01-15T04:39:51;100981.47;;;2.08;100.00
36726;BME280;44936;52.086;5.150;2024-01-15T04:42:20;100998.59;;;2.26;100.00
36726;BME280;44936;52.086;5.150;2024-01-15T04:44:45;100995.25;;;2.29;100.00
36726;BME280;44936;52.086;5.150;2024-01-15T04:47:11;100973.72;;;2.08;100.00
36726;BME280;44936;52.086;5.150;2024-01-15T04:49:36;100954.31;;;1.96;100.00
36726;BME280;44936;52.086;5.150;2024-01-15T04:52:01;100996.06;;;2.28;100.00
36726;BME280;44936;52.086;5.150;2024-01-15T04:54:27;101016.69;;;2.47;100.00
36726;BME280;44936;52.086;5.150;2024-01-15T04:56:52;100948.97;;;2.14;100.00
36726;BME280;44936;52.086;5.150;2024-01-15T04:59:17;101004.69;;;2.49;100.00
36726;BME280;44936;52.086;5.150;2024-01-15T05:01:43;100996.88;;;2.48;100.00
36726;BME280;44936;52.086;5.150;2024-01-15T05:04:08;100994.81;;;2.39;100.00
36726;BME280;44936;52.086;5.150;2024-01-15T05:06:34;100953.28;;;2.14;100.00
36726;BME280;44936;52.086;5.150;2024-01-15T05:08:59;100995.19;;;2.50;100.00
36726;BME280;44936;52.086;5.150;2024-01-15T05:11:26;100995.41;;;2.56;100.00
36726;BME280;44936;52.086;5.150;2024-01-15T05:13:51;100988.06;;;2.44;100.00
36726;BME280;44936;52.086;5.150;2024-01-15T05:16:16;100993.44;;;2.49;100.00
36726;BME280;44936;52.086;5.150;2024-01-15T05:18:42;100957.72;;;2.40;100.00
36726;BME280;44936;52.086;5.150;2024-01-15T05:21:08;100978.00;;;2.52;100.00
36726;BME280;44936;52.086;5.150;2024-01-15T05:23:34;100987.84;;;2.61;100.00
36726;BME280;44936;52.086;5.150;2024-01-15T05:25:59;100980.22;;;2.41;100.00
36726;BME280;44936;52.086;5.150;2024-01-15T05:28:25;100932.56;;;2.14;100.00
36726;BME280;44936;52.086;5.150;2024-01-15T05:30:50;100962.56;;;2.31;100.00
36726;BME280;44936;52.086;5.150;2024-01-15T05:33:16;100953.72;;;2.26;100.00
36726;BME280;44936;52.086;5.150;2024-01-15T05:35:42;100976.69;;;2.39;100.00
36726;BME280;44936;52.086;5.150;2024-01-15T05:38:07;100986.25;;;2.42;100.00
36726;BME280;44936;52.086;5.150;2024-01-15T05:40:33;100938.56;;;2.13;100.00
36726;BME280;44936;52.086;5.150;2024-01-15T05:42:58;100928.50;;;2.20;100.00
36726;BME280;44936;52.086;5.150;2024-01-15T05:45:23;100968.91;;;2.39;100.00
36726;BME280;44936;52.086;5.150;2024-01-15T05:47:49;100947.47;;;2.43;100.00
36726;BME280;44936;52.086;5.150;2024-01-15T05:50:14;100964.91;;;2.47;100.00
36726;BME280;44936;52.086;5.150;2024-01-15T05:52:39;100972.28;;;2.61;100.00
36726;BME280;44936;52.086;5.150;2024-01-15T05:55:05;100944.59;;;2.36;100.00
36726;BME280;44936;52.086;5.150;2024-01-15T05:57:30;100950.06;;;2.43;100.00
36726;BME280;44936;52.086;5.150;2024-01-15T05:59:56;101003.03;;;2.51;100.00
36726;BME280;44936;52.086;5.150;2024-01-15T06:02:21;100977.13;;;2.29;100.00
36726;BME280;44936;52.086;5.150;2024-01-15T06:04:47;100920.63;;;2.17;100.00
36726;BME280;44936;52.086;5.150;2024-01-15T06:07:12;100922.63;;;2.02;100.00
36726;BME280;44936;52.086;5.150;2024-01-15T06:09:37;100972.78;;;2.28;100.00
36726;BME280;44936;52.086;5.150;2024-01-15T06:12:04;100969.00;;;2.20;100.00
36726;BME280;44936;52.086;5.150;2024-01-15T06:14:29;100965.63;;;2.21;100.00
36726;BME280;44936;52.086;5.150;2024-01-15T06:16:55;100907.38;;;2.10;100.00
36726;BME280;44936;52.086;5.150;2024-01-15T06:19:20;100927.94;;;2.29;100.00
36726;BME280;44936;52.086;5.150;2024-01-15T06:21:45;100952.13;;;2.52;100.00
36726;BME280;44936;52.086;5.150;2024-01-15T06:24:11;100964.44;;;2.58;100.00
36726;BME280;44936;52.086;5.150;2024-01-15T06:26:36;100939.75;;;2.21;100.00
36726;BME280;44936;52.086;5.150;2024-01-15T06:29:02;100952.03;;;2.26;100.00
36726;BME280;44936;52.086;5.150;2024-01-15T06:31:28;100980.16;;;2.64;100.00
36726;BME280;44936;52.086;5.150;2024-01-15T06:33:55;100934.88;;;2.52;100.00
36726;BME280;44936;52.086;5.150;2024-01-15T06:36:20;100965.31;;;2.58;100.00
36726;BME280;44936;52.086;5.150;2024-01-15T06:38:46;100949.31;;;2.70;100.00
36726;BME280;44936;52.086;5.150;2024-01-15T06:41:11;100977.81;;;2.70;100.00
36726;BME280;44936;52.086;5.150;2024-01-15T06:43:36;100989.16;;;2.49;100.00
36726;BME280;44936;52.086;5.150;2024-01-15T06:46:02;100973.81;;;2.32;100.00
36726;BME280;44936;52.086;5.150;2024-01-15T06:48:27;100953.44;;;2.18;100.00
36726;BME280;44936;52.086;5.150;2024-01-15T06:50:52;100963.78;;;2.18;100.00
36726;BME280;44936;52.086;5.150;2024-01-15T06:53:18;100961.19;;;2.18;100.00
36726;BME280;44936;52.086;5.150;2024-01-15T06:55:43;100946.72;;;2.01;100.00
36726;BME280;44936;52.086;5.150;2024-01-15T06:58:09;100941.09;;;1.89;100.00
36726;BME280;44936;52.086;5.150;2024-01-15T07:00:34;100962.91;;;1.95;100.00
36726;BME280;44936;52.086;5.150;2024-01-15T07:02:59;100964.63;;;1.95;100.00
36726;BME280;44936;52.086;5.150;2024-01-15T07:05:25;100971.53;;;1.96;100.00
36726;BME280;44936;52.086;5.150;2024-01-15T07:07:50;100936.88;;;1.70;100.00
36726;BME280;44936;52.086;5.150;2024-01-15T07:10:15;101001.41;;;1.88;100.00
36726;BME280;44936;52.086;5.150;2024-01-15T07:12:44;100939.47;;;1.70;100.00
36726;BME280;44936;52.086;5.150;2024-01-15T07:15:10;100969.63;;;1.69;100.00
36726;BME280;44936;52.086;5.150;2024-01-15T07:17:36;100959.78;;;1.61;100.00
36726;BME280;44936;52.086;5.150;2024-01-15T07:20:05;100991.47;;;1.98;100.00
36726;BME280;44936;52.086;5.150;2024-01-15T07:22:33;100971.81;;;1.81;100.00
36726;BME280;44936;52.086;5.150;2024-01-15T07:24:58;100986.88;;;1.91;100.00
36726;BME280;44936;52.086;5.150;2024-01-15T07:27:24;100952.72;;;1.78;100.00
36726;BME280;44936;52.086;5.150;2024-01-15T07:29:49;100996.94;;;1.85;100.00
36726;BME280;44936;52.086;5.150;2024-01-15T07:32:15;100994.09;;;1.78;100.00
36726;BME280;44936;52.086;5.150;2024-01-15T07:34:40;100994.69;;;1.93;100.00
36726;BME280;44936;52.086;5.150;2024-01-15T07:37:05;100970.88;;;1.79;100.00
36726;BME280;44936;52.086;5.150;2024-01-15T07:39:32;100950.75;;;1.72;100.00
36726;BME280;44936;52.086;5.150;2024-01-15T07:41:58;100960.75;;;1.85;100.00
36726;BME280;44936;52.086;5.150;2024-01-15T07:44:23;100953.19;;;1.90;100.00
36726;BME280;44936;52.086;5.150;2024-01-15T07:46:49;100956.66;;;1.90;100.00
36726;BME280;44936;52.086;5.150;2024-01-15T07:49:14;100963.34;;;1.85;100.00
36726;BME280;44936;52.086;5.150;2024-01-15T07:51:39;100972.59;;;2.01;100.00
36726;BME280;44936;52.086;5.150;2024-01-15T07:54:06;100974.13;;;1.96;100.00
36726;BME280;44936;52.086;5.150;2024-01-15T07:56:31;100988.13;;;2.01;100.00
36726;BME280;44936;52.086;5.150;2024-01-15T07:58:57;100982.41;;;2.10;100.00
36726;BME280;44936;52.086;5.150;2024-01-15T08:01:22;100966.53;;;2.01;100.00
36726;BME280;44936;52.086;5.150;2024-01-15T08:03:50;100947.06;;;2.10;100.00
36726;BME280;44936;52.086;5.150;2024-01-15T08:06:15;100938.91;;;1.99;100.00
36726;BME280;44936;52.086;5.150;2024-01-15T08:08:41;100936.78;;;2.12;100.00
36726;BME280;44936;52.086;5.150;2024-01-15T08:11:07;100974.69;;;2.32;100.00
36726;BME280;44936;52.086;5.150;2024-01-15T08:13:32;100958.56;;;2.17;100.00
36726;BME280;44936;52.086;5.150;2024-01-15T08:15:57;100982.44;;;2.32;100.00
36726;BME280;44936;52.086;5.150;2024-01-15T08:18:23;100977.75;;;2.22;100.00
36726;BME280;44936;52.086;5.150;2024-01-15T08:20:48;100988.72;;;2.16;100.00
36726;BME280;44936;52.086;5.150;2024-01-15T08:23:16;100977.13;;;2.07;100.00
36726;BME280;44936;52.086;5.150;2024-01-15T08:25:41;100990.91;;;2.28;100.00
36726;BME280;44936;52.086;5.150;2024-01-15T08:28:06;100941.53;;;2.01;100.00
36726;BME280;44936;52.086;5.150;2024-01-15T08:30:33;100960.31;;;1.95;100.00
36726;BME280;44936;52.086;5.150;2024-01-15T08:32:59;101006.97;;;2.42;100.00
36726;BME280;44936;52.086;5.150;2024-01-15T08:35:25;101022.66;;;2.24;100.00
36726;BME280;44936;52.086;5.150;2024-01-15T08:37:50;101010.31;;;2.17;100.00
36726;BME280;44936;52.086;5.150;2024-01-15T08:40:16;101025.47;;;2.08;100.00
36726;BME280;44936;52.086;5.150;2024-01-15T08:42:42;100965.44;;;1.73;100.00
36726;BME280;44936;52.086;5.150;2024-01-15T08:45:08;100992.19;;;1.94;100.00
36726;BME280;44936;52.086;5.150;2024-01-15T08:47:34;100973.56;;;1.82;100.00
36726;BME280;44936;52.086;5.150;2024-01-15T08:49:59;100987.22;;;1.78;100.00
36726;BME280;44936;52.086;5.150;2024-01-15T08:52:25;100962.31;;;1.59;100.00
36726;BME280;44936;52.086;5.150;2024-01-15T08:54:50;100950.41;;;1.42;100.00
36726;BME280;44936;52.086;5.150;2024-01-15T08:57:16;100988.41;;;1.65;100.00
36726;BME280;44936;52.086;5.150;2024-01-15T08:59:41;100982.72;;;1.74;100.00
36726;BME280;44936;52.086;5.150;2024-01-15T09:02:07;101011.97;;;1.94;100.00
36726;BME280;44936;52.086;5.150;2024-01-15T09:04:33;101028.47;;;1.96;100.00
36726;BME280;44936;52.086;5.150;2024-01-15T09:06:58;101029.06;;;1.90;100.00
36726;BME280;44936;52.086;5.150;2024-01-15T09:09:23;100999.28;;;1.58;100.00
36726;BME280;44936;52.086;5.150;2024-01-15T09:11:50;101007.31;;;1.64;100.00
36726;BME280;44936;52.086;5.150;2024-01-15T09:14:15;101015.69;;;1.59;100.00
36726;BME280;44936;52.086;5.150;2024-01-15T09:16:41;101022.81;;;1.85;100.00
36726;BME280;44936;52.086;5.150;2024-01-15T09:19:06;101025.81;;;1.94;100.00
36726;BME280;44936;52.086;5.150;2024-01-15T09:21:31;101003.56;;;1.99;100.00
36726;BME280;44936;52.086;5.150;2024-01-15T09:23:57;100969.03;;;1.77;100.00
36726;BME280;44936;52.086;5.150;2024-01-15T09:26:23;101021.28;;;2.11;100.00
36726;BME280;44936;52.086;5.150;2024-01-15T09:28:49;101026.97;;;2.03;100.00
36726;BME280;44936;52.086;5.150;2024-01-15T09:31:14;100992.81;;;1.89;100.00
36726;BME280;44936;52.086;5.150;2024-01-15T09:33:40;101020.09;;;2.03;100.00
36726;BME280;44936;52.086;5.150;2024-01-15T09:36:05;101014.63;;;1.95;100.00
36726;BME280;44936;52.086;5.150;2024-01-15T09:38:31;100980.94;;;1.73;100.00
36726;BME280;44936;52.086;5.150;2024-01-15T09:40:57;100982.03;;;1.78;100.00
36726;BME280;44936;52.086;5.150;2024-01-15T09:43:23;101017.22;;;1.95;100.00
36726;BME280;44936;52.086;5.150;2024-01-15T09:45:49;101002.13;;;1.85;100.00
36726;BME280;44936;52.086;5.150;2024-01-15T09:48:15;101014.84;;;1.79;100.00
36726;BME280;44936;52.086;5.150;2024-01-15T09:50:41;100984.00;;;1.63;100.00
36726;BME280;44936;52.086;5.150;2024-01-15T09:53:08;100952.59;;;1.54;100.00
36726;BME280;44936;52.086;5.150;2024-01-15T09:55:36;100984.47;;;1.75;100.00
36726;BME280;44936;52.086;5.150;2024-01-15T09:58:03;100950.00;;;1.54;100.00
36726;BME280;44936;52.086;5.150;2024-01-15T10:00:29;100996.03;;;1.83;100.00
36726;BME280;44936;52.086;5.150;2024-01-15T10:02:58;100989.78;;;1.78;100.00
36726;BME280;44936;52.086;5.150;2024-01-15T10:05:25;100965.28;;;1.68;100.00
36726;BME280;44936;52.086;5.150;2024-01-15T10:07:51;100960.88;;;1.88;100.00
36726;BME280;44936;52.086;5.150;2024-01-15T10:10:18;100971.84;;;2.04;100.00
36726;BME280;44936;52.086;5.150;2024-01-15T10:12:43;100994.44;;;2.30;100.00
36726;BME280;44936;52.086;5.150;2024-01-15T10:15:10;100967.97;;;2.15;100.00
36726;BME280;44936;52.086;5.150;2024-01-15T10:17:37;100972.13;;;2.11;100.00
36726;BME280;44936;52.086;5.150;2024-01-15T10:20:08;101002.97;;;2.50;100.00
36726;BME280;44936;52.086;5.150;2024-01-15T10:22:35;100986.22;;;2.40;100.00
36726;BME280;44936;52.086;5.150;2024-01-15T10:25:03;100987.94;;;2.64;100.00
36726;BME280;44936;52.086;5.150;2024-01-15T10:27:29;100975.50;;;2.77;100.00
36726;BME280;44936;52.086;5.150;2024-01-15T10:29:54;100980.53;;;2.97;100.00
36726;BME280;44936;52.086;5.150;2024-01-15T10:32:23;100995.47;;;3.04;100.00
36726;BME280;44936;52.086;5.150;2024-01-15T10:34:52;101009.44;;;3.09;100.00
36726;BME280;44936;52.086;5.150;2024-01-15T10:37:17;100985.09;;;2.80;100.00
36726;BME280;44936;52.086;5.150;2024-01-15T10:39:43;100996.88;;;2.72;100.00
36726;BME280;44936;52.086;5.150;2024-01-15T10:42:09;100997.41;;;2.63;100.00
36726;BME280;44936;52.086;5.150;2024-01-15T10:44:35;101007.22;;;2.72;100.00
36726;BME280;44936;52.086;5.150;2024-01-15T10:47:00;101028.00;;;2.96;100.00
36726;BME280;44936;52.086;5.150;2024-01-15T10:49:26;101037.91;;;3.07;100.00
36726;BME280;44936;52.086;5.150;2024-01-15T10:51:53;101023.91;;;3.02;100.00
36726;BME280;44936;52.086;5.150;2024-01-15T10:54:19;101026.09;;;3.16;100.00
36726;BME280;44936;52.086;5.150;2024-01-15T10:56:46;101040.91;;;3.18;100.00
36726;BME280;44936;52.086;5.150;2024-01-15T10:59:12;101037.41;;;3.18;100.00
36726;BME280;44936;52.086;5.150;2024-01-15T11:01:38;101043.47;;;3.42;100.00
36726;BME280;44936;52.086;5.150;2024-01-15T11:04:04;101029.66;;;3.43;100.00
36726;BME280;44936;52.086;5.150;2024-01-15T11:06:42;101003.88;;;3.22;100.00
36726;BME280;44936;52.086;5.150;2024-01-15T11:09:08;101006.47;;;3.22;100.00
36726;BME280;44936;52.086;5.150;2024-01-15T11:11:36;101006.84;;;3.09;100.00
36726;BME280;44936;52.086;5.150;2024-01-15T11:14:05;101011.75;;;3.25;100.00
36726;BME280;44936;52.086;5.150;2024-01-15T11:16:54;101054.78;;;3.44;100.00
36726;BME280;44936;52.086;5.150;2024-01-15T11:19:21;101036.94;;;3.28;100.00
36726;BME280;44936;52.086;5.150;2024-01-15T11:21:47;101028.09;;;3.47;100.00
36726;BME280;44936;52.086;5.150;2024-01-15T11:24:33;101050.34;;;3.65;100.00
36726;BME280;44936;52.086;5.150;2024-01-15T11:26:58;101055.94;;;3.78;100.00
36726;BME280;44936;52.086;5.150;2024-01-15T11:34:21;101037.59;;;3.72;100.00
36726;BME280;44936;52.086;5.150;2024-01-15T11:37:06;101058.13;;;3.65;100.00
36726;BME280;44936;52.086;5.150;2024-01-15T11:42:02;101012.66;;;3.26;100.00
36726;BME280;44936;52.086;5.150;2024-01-15T11:44:28;101030.81;;;3.51;100.00
36726;BME280;44936;52.086;5.150;2024-01-15T11:46:58;101077.00;;;3.61;100.00
36726;BME280;44936;52.086;5.150;2024-01-15T11:52:16;101074.53;;;3.17;100.00
36726;BME280;44936;52.086;5.150;2024-01-15T11:54:48;101058.88;;;3.13;100.00
36726;BME280;44936;52.086;5.150;2024-01-15T11:57:24;101059.88;;;2.93;100.00
36726;BME280;44936;52.086;5.150;2024-01-15T11:59:50;101074.53;;;3.17;100.00
36726;BME280;44936;52.086;5.150;2024-01-15T12:02:16;101068.25;;;3.10;100.00
36726;BME280;44936;52.086;5.150;2024-01-15T12:04:41;101079.22;;;3.27;100.00
36726;BME280;44936;52.086;5.150;2024-01-15T12:07:07;101083.19;;;3.17;100.00
36726;BME280;44936;52.086;5.150;2024-01-15T12:09:33;101057.28;;;2.93;100.00
36726;BME280;44936;52.086;5.150;2024-01-15T12:12:03;101085.34;;;3.05;100.00
36726;BME280;44936;52.086;5.150;2024-01-15T12:14:32;101092.31;;;3.07;100.00
36726;BME280;44936;52.086;5.150;2024-01-15T12:16:59;101036.09;;;2.59;100.00
36726;BME280;44936;52.086;5.150;2024-01-15T12:19:25;101058.56;;;2.82;100.00
36726;BME280;44936;52.086;5.150;2024-01-15T12:21:51;101076.69;;;3.04;100.00
36726;BME280;44936;52.086;5.150;2024-01-15T12:24:20;101095.25;;;3.17;100.00
36726;BME280;44936;52.086;5.150;2024-01-15T12:26:45;101073.50;;;3.11;100.00
36726;BME280;44936;52.086;5.150;2024-01-15T12:29:11;101083.97;;;3.38;100.00
36726;BME280;44936;52.086;5.150;2024-01-15T12:31:36;101076.06;;;3.35;100.00
36726;BME280;44936;52.086;5.150;2024-01-15T12:34:02;101042.53;;;3.16;100.00
36726;BME280;44936;52.086;5.150;2024-01-15T12:36:30;101033.09;;;3.42;100.00
36726;BME280;44936;52.086;5.150;2024-01-15T12:38:59;101033.84;;;3.38;100.00
36726;BME280;44936;52.086;5.150;2024-01-15T12:41:25;101020.25;;;3.45;100.00
36726;BME280;44936;52.086;5.150;2024-01-15T12:43:50;101071.28;;;3.97;100.00
36726;BME280;44936;52.086;5.150;2024-01-15T12:46:16;101031.13;;;3.86;100.00
36726;BME280;44936;52.086;5.150;2024-01-15T12:48:41;101072.59;;;4.37;100.00
36726;BME280;44936;52.086;5.150;2024-01-15T12:51:08;101051.66;;;4.32;100.00
36726;BME280;44936;52.086;5.150;2024-01-15T12:53:33;101039.50;;;4.04;100.00